Much Wenlock, United Kingdom
Current Conditions -  °F | °C
As of 2:50 PM on Friday 31 Oct 2014 (Local Time) from EGOS Reporting Station
Clear Clear  
Wind Chill: 64°   Ceiling: Unl
Heat Index: 64°   Visibility: 6mi
Dew Point: 57°   Wind: 14mph
Humidity: 77%   Direction: 170°S
Pressure: 29.83"   Gusts: NA
Location:  52.6°N, 2.56°W
Report Text: EGOS 311450Z 17012KT CAVOK 18/14 Q1010 BLU NOSIG
Loading
Personal Weather Stations






























Interactive Weather Map
Tropical Storm Tracking
New forecast layout! Learn more

10-Day Weather Forecast

Advertisements
Track Severe Weather on mobile